Resolven, United Kingdom
Current Conditions -  °F | °C
As of 1:50 AM on Thursday 23 Oct 2014 (Local Time) from EGDX Reporting Station
Light Rain Light Rain  
Wind Chill: 13°   Ceiling: 2300
Heat Index: 13°   Visibility: 6mi
Dew Point:   Wind: 16mph
Humidity: 77%   Direction: 260°W
Pressure: 30.15"   Gusts: NA
Location:  51.71°N, 3.7°W
Report Text: EGDX 230050Z AUTO 26014KT 9999 -RADZ OVC023/// 13/09 Q1021
Loading
Personal Weather Stations






























Interactive Weather Map
Tropical Storm Tracking
New forecast layout! Learn more

10-Day Weather Forecast

Advertisements
Track Severe Weather on mobile